sensor_id;sensor_type;location;lat;lon;timestamp;pressure;altitude;pressure_sealevel;temperature;humidity
29909;BME280;36247;51.952;6.146;2024-01-15T00:01:50;100190.53;;;1.78;100.00
29909;BME280;36247;51.952;6.146;2024-01-15T00:04:17;100184.34;;;1.76;100.00
29909;BME280;36247;51.952;6.146;2024-01-15T00:06:43;100177.38;;;1.75;100.00
29909;BME280;36247;51.952;6.146;2024-01-15T00:09:09;100182.47;;;1.72;100.00
29909;BME280;36247;51.952;6.146;2024-01-15T00:11:35;100167.34;;;1.63;100.00
29909;BME280;36247;51.952;6.146;2024-01-15T00:14:01;100168.81;;;1.56;100.00
29909;BME280;36247;51.952;6.146;2024-01-15T00:16:29;100161.81;;;1.55;100.00
29909;BME280;36247;51.952;6.146;2024-01-15T00:18:54;100159.16;;;1.54;100.00
29909;BME280;36247;51.952;6.146;2024-01-15T00:21:20;100161.50;;;1.48;100.00
29909;BME280;36247;51.952;6.146;2024-01-15T00:23:46;100156.47;;;1.52;100.00
29909;BME280;36247;51.952;6.146;2024-01-15T00:26:13;100155.28;;;1.44;100.00
29909;BME280;36247;51.952;6.146;2024-01-15T00:28:39;100148.16;;;1.40;100.00
29909;BME280;36247;51.952;6.146;2024-01-15T00:31:06;100149.13;;;1.42;100.00
29909;BME280;36247;51.952;6.146;2024-01-15T00:33:32;100156.28;;;1.48;100.00
29909;BME280;36247;51.952;6.146;2024-01-15T00:35:58;100152.72;;;1.46;100.00
29909;BME280;36247;51.952;6.146;2024-01-15T00:38:24;100149.25;;;1.45;100.00
29909;BME280;36247;51.952;6.146;2024-01-15T00:40:50;100146.50;;;1.42;100.00
29909;BME280;36247;51.952;6.146;2024-01-15T00:43:16;100149.00;;;1.39;100.00
29909;BME280;36247;51.952;6.146;2024-01-15T00:45:45;100151.72;;;1.42;100.00
29909;BME280;36247;51.952;6.146;2024-01-15T00:48:10;100149.19;;;1.44;100.00
29909;BME280;36247;51.952;6.146;2024-01-15T00:50:36;100152.44;;;1.38;100.00
29909;BME280;36247;51.952;6.146;2024-01-15T00:53:02;100148.94;;;1.37;100.00
29909;BME280;36247;51.952;6.146;2024-01-15T00:55:28;100138.69;;;1.42;100.00
29909;BME280;36247;51.952;6.146;2024-01-15T00:57:55;100139.69;;;1.46;100.00
29909;BME280;36247;51.952;6.146;2024-01-15T01:00:21;100141.63;;;1.29;100.00
29909;BME280;36247;51.952;6.146;2024-01-15T01:02:47;100134.97;;;1.37;100.00
29909;BME280;36247;51.952;6.146;2024-01-15T01:05:13;100135.56;;;1.30;100.00
29909;BME280;36247;51.952;6.146;2024-01-15T01:07:39;100133.16;;;1.13;100.00
29909;BME280;36247;51.952;6.146;2024-01-15T01:10:05;100130.94;;;1.22;100.00
29909;BME280;36247;51.952;6.146;2024-01-15T01:12:35;100127.25;;;1.17;100.00
29909;BME280;36247;51.952;6.146;2024-01-15T01:15:02;100115.03;;;1.16;100.00
29909;BME280;36247;51.952;6.146;2024-01-15T01:17:28;100112.06;;;1.07;100.00
29909;BME280;36247;51.952;6.146;2024-01-15T01:19:56;100112.13;;;1.09;100.00
29909;BME280;36247;51.952;6.146;2024-01-15T01:22:22;100110.66;;;1.15;100.00
29909;BME280;36247;51.952;6.146;2024-01-15T01:24:48;100102.72;;;1.12;100.00
29909;BME280;36247;51.952;6.146;2024-01-15T01:27:14;100116.31;;;1.05;100.00
29909;BME280;36247;51.952;6.146;2024-01-15T01:29:40;100098.13;;;1.07;100.00
29909;BME280;36247;51.952;6.146;2024-01-15T01:32:06;100101.50;;;1.04;100.00
29909;BME280;36247;51.952;6.146;2024-01-15T01:34:32;100099.72;;;1.03;100.00
29909;BME280;36247;51.952;6.146;2024-01-15T01:36:59;100104.97;;;1.04;100.00
29909;BME280;36247;51.952;6.146;2024-01-15T01:39:28;100106.59;;;1.01;100.00
29909;BME280;36247;51.952;6.146;2024-01-15T01:41:53;100106.72;;;1.04;100.00
29909;BME280;36247;51.952;6.146;2024-01-15T01:44:20;100109.97;;;0.98;100.00
29909;BME280;36247;51.952;6.146;2024-01-15T01:46:46;100112.00;;;1.05;100.00
29909;BME280;36247;51.952;6.146;2024-01-15T01:49:12;100116.09;;;0.99;100.00
29909;BME280;36247;51.952;6.146;2024-01-15T01:51:39;100116.56;;;1.11;100.00
29909;BME280;36247;51.952;6.146;2024-01-15T01:54:05;100114.53;;;1.04;100.00
29909;BME280;36247;51.952;6.146;2024-01-15T01:56:33;100115.25;;;1.00;100.00
29909;BME280;36247;51.952;6.146;2024-01-15T01:59:01;100113.66;;;1.03;100.00
29909;BME280;36247;51.952;6.146;2024-01-15T02:01:29;100121.47;;;1.03;100.00
29909;BME280;36247;51.952;6.146;2024-01-15T02:03:55;100118.25;;;1.09;100.00
29909;BME280;36247;51.952;6.146;2024-01-15T02:06:23;100128.56;;;1.06;100.00
29909;BME280;36247;51.952;6.146;2024-01-15T02:08:50;100118.19;;;1.08;100.00
29909;BME280;36247;51.952;6.146;2024-01-15T02:11:16;100115.41;;;1.04;100.00
29909;BME280;36247;51.952;6.146;2024-01-15T02:13:42;100118.38;;;1.12;100.00
29909;BME280;36247;51.952;6.146;2024-01-15T02:16:08;100119.88;;;1.07;100.00
29909;BME280;36247;51.952;6.146;2024-01-15T02:18:45;100115.56;;;1.08;100.00
29909;BME280;36247;51.952;6.146;2024-01-15T02:21:11;100110.09;;;1.01;100.00
29909;BME280;36247;51.952;6.146;2024-01-15T02:23:38;100113.03;;;1.09;100.00
29909;BME280;36247;51.952;6.146;2024-01-15T02:26:11;100116.16;;;1.00;100.00
29909;BME280;36247;51.952;6.146;2024-01-15T02:28:37;100106.66;;;1.02;100.00
29909;BME280;36247;51.952;6.146;2024-01-15T02:31:04;100101.38;;;1.01;100.00
29909;BME280;36247;51.952;6.146;2024-01-15T02:33:33;100105.78;;;1.02;100.00
29909;BME280;36247;51.952;6.146;2024-01-15T02:35:59;100104.88;;;1.01;100.00
29909;BME280;36247;51.952;6.146;2024-01-15T02:38:25;100115.25;;;1.00;100.00
29909;BME280;36247;51.952;6.146;2024-01-15T02:40:51;100105.78;;;1.02;100.00
29909;BME280;36247;51.952;6.146;2024-01-15T02:43:17;100105.53;;;0.96;100.00
29909;BME280;36247;51.952;6.146;2024-01-15T02:45:45;100109.19;;;1.01;100.00
29909;BME280;36247;51.952;6.146;2024-01-15T02:48:15;100099.59;;;1.00;100.00
29909;BME280;36247;51.952;6.146;2024-01-15T02:50:41;100124.16;;;1.05;100.00
29909;BME280;36247;51.952;6.146;2024-01-15T02:53:08;100114.66;;;1.07;100.00
29909;BME280;36247;51.952;6.146;2024-01-15T02:55:36;100114.53;;;1.04;100.00
29909;BME280;36247;51.952;6.146;2024-01-15T02:58:03;100122.47;;;1.07;100.00
29909;BME280;36247;51.952;6.146;2024-01-15T03:00:35;100132.22;;;1.11;100.00
29909;BME280;36247;51.952;6.146;2024-01-15T03:03:04;100138.50;;;1.16;100.00
29909;BME280;36247;51.952;6.146;2024-01-15T03:05:30;100128.00;;;1.15;100.00
29909;BME280;36247;51.952;6.146;2024-01-15T03:07:59;100133.84;;;1.08;100.00
29909;BME280;36247;51.952;6.146;2024-01-15T03:10:29;100131.16;;;1.06;100.00
29909;BME280;36247;51.952;6.146;2024-01-15T03:12:57;100125.66;;;1.00;100.00
29909;BME280;36247;51.952;6.146;2024-01-15T03:15:23;100123.84;;;0.97;100.00
29909;BME280;36247;51.952;6.146;2024-01-15T03:17:50;100119.63;;;1.01;100.00
29909;BME280;36247;51.952;6.146;2024-01-15T03:20:16;100117.16;;;1.04;100.00
29909;BME280;36247;51.952;6.146;2024-01-15T03:22:43;100118.81;;;1.02;100.00
29909;BME280;36247;51.952;6.146;2024-01-15T03:25:09;100116.38;;;1.07;100.00
29909;BME280;36247;51.952;6.146;2024-01-15T03:27:35;100116.38;;;1.07;100.00
29909;BME280;36247;51.952;6.146;2024-01-15T03:30:05;100105.91;;;1.05;100.00
29909;BME280;36247;51.952;6.146;2024-01-15T03:32:35;100110.94;;;1.00;100.00
29909;BME280;36247;51.952;6.146;2024-01-15T03:35:01;100116.09;;;0.99;100.00
29909;BME280;36247;51.952;6.146;2024-01-15T03:37:28;100114.34;;;0.99;100.00
29909;BME280;36247;51.952;6.146;2024-01-15T03:39:54;100114.34;;;0.99;100.00
29909;BME280;36247;51.952;6.146;2024-01-15T03:42:20;100105.72;;;1.00;100.00
29909;BME280;36247;51.952;6.146;2024-01-15T03:44:51;100102.06;;;0.97;100.00
29909;BME280;36247;51.952;6.146;2024-01-15T03:47:17;100109.72;;;0.92;100.00
29909;BME280;36247;51.952;6.146;2024-01-15T03:49:44;100107.28;;;0.97;100.00
29909;BME280;36247;51.952;6.146;2024-01-15T03:52:13;100108.84;;;0.92;100.00
29909;BME280;36247;51.952;6.146;2024-01-15T03:54:40;100094.91;;;0.91;100.00
29909;BME280;36247;51.952;6.146;2024-01-15T03:57:09;100095.28;;;1.00;100.00
29909;BME280;36247;51.952;6.146;2024-01-15T03:59:38;100104.63;;;0.95;100.00
29909;BME280;36247;51.952;6.146;2024-01-15T04:02:06;100097.38;;;1.09;100.00
29909;BME280;36247;51.952;6.146;2024-01-15T04:04:32;100089.34;;;1.04;100.00
29909;BME280;36247;51.952;6.146;2024-01-15T04:07:01;100086.94;;;1.09;100.00
29909;BME280;36247;51.952;6.146;2024-01-15T04:09:30;100091.06;;;1.04;100.00
29909;BME280;36247;51.952;6.146;2024-01-15T04:11:56;100092.03;;;1.06;100.00
29909;BME280;36247;51.952;6.146;2024-01-15T04:14:22;100085.97;;;1.07;100.00
29909;BME280;36247;51.952;6.146;2024-01-15T04:16:48;100086.94;;;1.09;100.00
29909;BME280;36247;51.952;6.146;2024-01-15T04:19:14;100080.75;;;1.07;100.00
29909;BME280;36247;51.952;6.146;2024-01-15T04:21:40;100085.22;;;1.10;100.00
29909;BME280;36247;51.952;6.146;2024-01-15T04:24:07;100082.78;;;1.14;100.00
29909;BME280;36247;51.952;6.146;2024-01-15T04:26:33;100074.53;;;1.03;100.00
29909;BME280;36247;51.952;6.146;2024-01-15T04:28:59;100075.94;;;0.95;100.00
29909;BME280;36247;51.952;6.146;2024-01-15T04:31:27;100076.56;;;0.90;100.00
29909;BME280;36247;51.952;6.146;2024-01-15T04:33:53;100072.38;;;0.93;100.00
29909;BME280;36247;51.952;6.146;2024-01-15T04:36:20;100068.84;;;0.91;100.00
29909;BME280;36247;51.952;6.146;2024-01-15T04:38:51;100073.84;;;0.86;100.00
29909;BME280;36247;51.952;6.146;2024-01-15T04:41:17;100065.50;;;0.95;100.00
29909;BME280;36247;51.952;6.146;2024-01-15T04:43:44;100060.09;;;0.91;100.00
29909;BME280;36247;51.952;6.146;2024-01-15T04:46:10;100047.41;;;1.00;100.00
29909;BME280;36247;51.952;6.146;2024-01-15T04:48:36;100048.16;;;0.96;100.00
29909;BME280;36247;51.952;6.146;2024-01-15T04:51:06;100052.06;;;1.07;100.00
29909;BME280;36247;51.952;6.146;2024-01-15T04:53:35;100052.16;;;1.10;100.00
29909;BME280;36247;51.952;6.146;2024-01-15T04:56:10;100055.00;;;0.94;100.00
29909;BME280;36247;51.952;6.146;2024-01-15T04:58:37;100043.88;;;0.98;100.00
29909;BME280;36247;51.952;6.146;2024-01-15T05:01:03;100042.94;;;0.96;100.00
29909;BME280;36247;51.952;6.146;2024-01-15T05:03:29;100042.81;;;0.93;100.00
29909;BME280;36247;51.952;6.146;2024-01-15T05:05:55;100039.41;;;0.95;100.00
29909;BME280;36247;51.952;6.146;2024-01-15T05:08:21;100047.88;;;0.90;100.00
29909;BME280;36247;51.952;6.146;2024-01-15T05:10:47;100038.34;;;0.90;100.00
29909;BME280;36247;51.952;6.146;2024-01-15T05:13:13;100039.13;;;0.87;100.00
29909;BME280;36247;51.952;6.146;2024-01-15T05:15:39;100031.28;;;0.87;100.00
29909;BME280;36247;51.952;6.146;2024-01-15T05:18:05;100031.28;;;0.87;100.00
29909;BME280;36247;51.952;6.146;2024-01-15T05:20:32;100035.69;;;0.88;100.00
29909;BME280;36247;51.952;6.146;2024-01-15T05:22:58;100027.75;;;0.85;100.00
29909;BME280;36247;51.952;6.146;2024-01-15T05:25:24;100038.75;;;0.78;100.00
29909;BME280;36247;51.952;6.146;2024-01-15T05:27:50;100037.59;;;0.72;100.00
29909;BME280;36247;51.952;6.146;2024-01-15T05:30:16;100026.53;;;0.77;100.00
29909;BME280;36247;51.952;6.146;2024-01-15T05:32:42;100024.78;;;0.76;100.00
29909;BME280;36247;51.952;6.146;2024-01-15T05:35:08;100034.31;;;0.76;100.00
29909;BME280;36247;51.952;6.146;2024-01-15T05:37:39;100038.13;;;0.84;100.00
29909;BME280;36247;51.952;6.146;2024-01-15T05:40:05;100029.38;;;0.83;100.00
29909;BME280;36247;51.952;6.146;2024-01-15T05:42:41;100019.94;;;0.85;100.00
29909;BME280;36247;51.952;6.146;2024-01-15T05:45:09;100023.53;;;0.89;100.00
29909;BME280;36247;51.952;6.146;2024-01-15T05:47:36;100024.16;;;0.83;100.00
29909;BME280;36247;51.952;6.146;2024-01-15T05:50:02;100019.13;;;0.88;100.00
29909;BME280;36247;51.952;6.146;2024-01-15T05:52:31;100018.50;;;0.94;100.00
29909;BME280;36247;51.952;6.146;2024-01-15T05:54:57;100022.41;;;1.05;100.00
29909;BME280;36247;51.952;6.146;2024-01-15T05:57:23;100026.19;;;0.91;100.00
29909;BME280;36247;51.952;6.146;2024-01-15T05:59:49;100022.06;;;0.96;100.00
29909;BME280;36247;51.952;6.146;2024-01-15T06:02:15;100024.78;;;0.99;100.00
29909;BME280;36247;51.952;6.146;2024-01-15T06:04:41;100029.91;;;0.96;100.00
29909;BME280;36247;51.952;6.146;2024-01-15T06:07:07;100044.88;;;1.01;100.00
29909;BME280;36247;51.952;6.146;2024-01-15T06:09:33;100028.34;;;1.01;100.00
29909;BME280;36247;51.952;6.146;2024-01-15T06:11:59;100021.34;;;1.00;100.00
29909;BME280;36247;51.952;6.146;2024-01-15T06:14:25;100035.34;;;1.02;100.00
29909;BME280;36247;51.952;6.146;2024-01-15T06:16:52;100025.03;;;1.05;100.00
29909;BME280;36247;51.952;6.146;2024-01-15T06:19:18;100031.06;;;1.04;100.00
29909;BME280;36247;51.952;6.146;2024-01-15T06:21:46;100033.50;;;0.99;100.00
29909;BME280;36247;51.952;6.146;2024-01-15T06:24:15;100034.66;;;1.06;100.00
29909;BME280;36247;51.952;6.146;2024-01-15T06:26:47;100025.84;;;1.04;100.00
29909;BME280;36247;51.952;6.146;2024-01-15T06:29:18;100035.16;;;0.97;100.00
29909;BME280;36247;51.952;6.146;2024-01-15T06:31:51;100030.38;;;1.08;100.00
29909;BME280;36247;51.952;6.146;2024-01-15T06:34:17;100013.03;;;1.10;100.00
29909;BME280;36247;51.952;6.146;2024-01-15T06:36:49;100024.38;;;1.11;100.00
29909;BME280;36247;51.952;6.146;2024-01-15T06:39:17;100032.16;;;1.09;100.00
29909;BME280;36247;51.952;6.146;2024-01-15T06:41:43;100032.84;;;1.05;100.00
29909;BME280;36247;51.952;6.146;2024-01-15T06:44:10;100040.16;;;1.14;100.00
29909;BME280;36247;51.952;6.146;2024-01-15T06:46:43;100031.41;;;1.13;100.00
29909;BME280;36247;51.952;6.146;2024-01-15T06:49:09;100034.66;;;1.06;100.00
29909;BME280;36247;51.952;6.146;2024-01-15T06:51:35;100033.22;;;1.14;100.00
29909;BME280;36247;51.952;6.146;2024-01-15T06:54:07;100041.63;;;1.07;100.00
29909;BME280;36247;51.952;6.146;2024-01-15T06:56:40;100034.66;;;1.06;100.00
29909;BME280;36247;51.952;6.146;2024-01-15T06:59:11;100038.53;;;1.17;100.00
29909;BME280;36247;51.952;6.146;2024-01-15T07:01:39;100034.66;;;1.06;100.00
29909;BME280;36247;51.952;6.146;2024-01-15T07:04:08;100031.78;;;1.00;100.00
29909;BME280;36247;51.952;6.146;2024-01-15T07:06:34;100027.28;;;0.96;100.00
29909;BME280;36247;51.952;6.146;2024-01-15T07:09:00;100027.88;;;0.88;100.00
29909;BME280;36247;51.952;6.146;2024-01-15T07:11:26;100024.28;;;0.86;100.00
29909;BME280;36247;51.952;6.146;2024-01-15T07:13:52;100024.56;;;0.93;100.00
29909;BME280;36247;51.952;6.146;2024-01-15T07:16:17;100030.28;;;0.84;100.00
29909;BME280;36247;51.952;6.146;2024-01-15T07:18:43;100022.88;;;0.95;100.00
29909;BME280;36247;51.952;6.146;2024-01-15T07:21:10;100018.38;;;0.91;100.00
29909;BME280;36247;51.952;6.146;2024-01-15T07:23:35;100024.34;;;0.88;100.00
29909;BME280;36247;51.952;6.146;2024-01-15T07:26:01;100017.50;;;0.90;100.00
29909;BME280;36247;51.952;6.146;2024-01-15T07:28:30;100017.91;;;1.01;100.00
29909;BME280;36247;51.952;6.146;2024-01-15T07:30:57;100019.94;;;0.85;100.00
29909;BME280;36247;51.952;6.146;2024-01-15T07:33:22;100017.84;;;0.99;100.00
29909;BME280;36247;51.952;6.146;2024-01-15T07:35:48;100017.78;;;0.98;100.00
29909;BME280;36247;51.952;6.146;2024-01-15T07:38:14;100023.72;;;0.94;100.00
29909;BME280;36247;51.952;6.146;2024-01-15T07:40:40;100018.72;;;1.00;100.00
29909;BME280;36247;51.952;6.146;2024-01-15T07:43:06;100018.72;;;1.00;100.00
29909;BME280;36247;51.952;6.146;2024-01-15T07:45:32;100021.22;;;0.97;100.00
29909;BME280;36247;51.952;6.146;2024-01-15T07:47:58;100028.00;;;0.92;100.00
29909;BME280;36247;51.952;6.146;2024-01-15T07:50:31;100030.91;;;0.99;100.00
29909;BME280;36247;51.952;6.146;2024-01-15T07:52:57;100035.94;;;0.95;100.00
29909;BME280;36247;51.952;6.146;2024-01-15T07:55:23;100034.38;;;1.00;100.00
29909;BME280;36247;51.952;6.146;2024-01-15T07:57:49;100033.91;;;0.87;100.00
29909;BME280;36247;51.952;6.146;2024-01-15T08:00:16;100032.63;;;0.99;100.00
29909;BME280;36247;51.952;6.146;2024-01-15T08:02:42;100033.56;;;1.01;100.00
29909;BME280;36247;51.952;6.146;2024-01-15T08:05:07;100037.03;;;1.01;100.00
29909;BME280;36247;51.952;6.146;2024-01-15T08:07:33;100040.84;;;1.10;100.00
29909;BME280;36247;51.952;6.146;2024-01-15T08:09:59;100039.47;;;0.97;100.00
29909;BME280;36247;51.952;6.146;2024-01-15T08:12:25;100047.97;;;0.91;100.00
29909;BME280;36247;51.952;6.146;2024-01-15T08:14:51;100045.72;;;1.00;100.00
29909;BME280;36247;51.952;6.146;2024-01-15T08:17:20;100040.44;;;0.99;100.00
29909;BME280;36247;51.952;6.146;2024-01-15T08:19:46;100033.44;;;0.98;100.00
29909;BME280;36247;51.952;6.146;2024-01-15T08:22:12;100034.16;;;0.94;100.00
29909;BME280;36247;51.952;6.146;2024-01-15T08:24:37;100023.34;;;0.84;100.00
29909;BME280;36247;51.952;6.146;2024-01-15T08:27:03;100022.88;;;0.95;100.00
29909;BME280;36247;51.952;6.146;2024-01-15T08:29:30;100030.38;;;1.08;100.00
29909;BME280;36247;51.952;6.146;2024-01-15T08:31:59;100027.00;;;1.11;100.00
29909;BME280;36247;51.952;6.146;2024-01-15T08:34:24;100026.44;;;0.97;100.00
29909;BME280;36247;51.952;6.146;2024-01-15T08:36:51;100035.81;;;0.92;100.00
29909;BME280;36247;51.952;6.146;2024-01-15T08:39:16;100029.16;;;1.00;100.00
29909;BME280;36247;51.952;6.146;2024-01-15T08:41:45;100034.25;;;0.97;100.00
29909;BME280;36247;51.952;6.146;2024-01-15T08:44:14;100034.16;;;0.94;100.00
29909;BME280;36247;51.952;6.146;2024-01-15T08:46:40;100026.56;;;1.00;100.00
29909;BME280;36247;51.952;6.146;2024-01-15T08:49:07;100022.66;;;1.11;100.00
29909;BME280;36247;51.952;6.146;2024-01-15T08:51:33;100031.88;;;1.03;100.00
29909;BME280;36247;51.952;6.146;2024-01-15T08:53:59;100029.56;;;0.88;100.00
29909;BME280;36247;51.952;6.146;2024-01-15T08:56:25;100024.75;;;0.97;100.00
29909;BME280;36247;51.952;6.146;2024-01-15T08:58:52;100025.38;;;0.92;100.00
29909;BME280;36247;51.952;6.146;2024-01-15T09:01:18;100039.59;;;1.00;100.00
29909;BME280;36247;51.952;6.146;2024-01-15T09:03:44;100042.81;;;0.93;100.00
29909;BME280;36247;51.952;6.146;2024-01-15T09:06:11;100037.72;;;0.96;100.00
29909;BME280;36247;51.952;6.146;2024-01-15T09:08:37;100031.59;;;0.95;100.00
29909;BME280;36247;51.952;6.146;2024-01-15T09:11:03;100037.03;;;1.01;100.00
29909;BME280;36247;51.952;6.146;2024-01-15T09:13:29;100044.81;;;1.00;100.00
29909;BME280;36247;51.952;6.146;2024-01-15T09:15:54;100067.34;;;0.98;100.00
29909;BME280;36247;51.952;6.146;2024-01-15T09:18:20;100061.00;;;0.91;100.00
29909;BME280;36247;51.952;6.146;2024-01-15T09:20:46;100050.38;;;0.86;100.00
29909;BME280;36247;51.952;6.146;2024-01-15T09:23:11;100043.88;;;0.98;100.00
29909;BME280;36247;51.952;6.146;2024-01-15T09:25:37;100040.16;;;0.91;100.00
29909;BME280;36247;51.952;6.146;2024-01-15T09:28:03;100039.34;;;0.94;100.00
29909;BME280;36247;51.952;6.146;2024-01-15T09:30:29;100036.50;;;0.87;100.00
29909;BME280;36247;51.952;6.146;2024-01-15T09:32:55;100035.34;;;1.02;100.00
29909;BME280;36247;51.952;6.146;2024-01-15T09:35:20;100036.06;;;0.98;100.00
29909;BME280;36247;51.952;6.146;2024-01-15T09:37:46;100042.59;;;1.09;100.00
29909;BME280;36247;51.952;6.146;2024-01-15T09:40:13;100044.06;;;1.25;100.00
29909;BME280;36247;51.952;6.146;2024-01-15T09:42:42;100048.63;;;1.08;100.00
29909;BME280;36247;51.952;6.146;2024-01-15T09:45:09;100052.06;;;1.07;100.00
29909;BME280;36247;51.952;6.146;2024-01-15T09:47:37;100047.19;;;1.16;100.00
29909;BME280;36247;51.952;6.146;2024-01-15T09:50:05;100029.72;;;1.36;100.00
29909;BME280;36247;51.952;6.146;2024-01-15T09:52:31;100028.97;;;1.63;100.00
29909;BME280;36247;51.952;6.146;2024-01-15T09:54:58;100029.63;;;1.82;100.00
29909;BME280;36247;51.952;6.146;2024-01-15T09:57:25;100022.13;;;1.67;100.00
29909;BME280;36247;51.952;6.146;2024-01-15T09:59:51;100036.78;;;1.39;100.00
29909;BME280;36247;51.952;6.146;2024-01-15T10:02:17;100041.91;;;1.60;100.00
29909;BME280;36247;51.952;6.146;2024-01-15T10:04:44;100042.41;;;1.74;100.00
29909;BME280;36247;51.952;6.146;2024-01-15T10:07:15;100043.63;;;1.84;100.00
29909;BME280;36247;51.952;6.146;2024-01-15T10:09:42;100047.63;;;1.74;100.00
29909;BME280;36247;51.952;6.146;2024-01-15T10:12:09;100052.19;;;1.80;100.00
29909;BME280;36247;51.952;6.146;2024-01-15T10:14:36;100049.63;;;1.81;100.00
29909;BME280;36247;51.952;6.146;2024-01-15T10:17:14;100044.78;;;1.68;100.00
29909;BME280;36247;51.952;6.146;2024-01-15T10:19:41;100043.72;;;1.63;100.00
29909;BME280;36247;51.952;6.146;2024-01-15T10:22:09;100043.53;;;1.58;100.00
29909;BME280;36247;51.952;6.146;2024-01-15T10:24:43;100042.75;;;2.09;100.00
29909;BME280;36247;51.952;6.146;2024-01-15T10:27:09;100039.41;;;1.87;100.00
29909;BME280;36247;51.952;6.146;2024-01-15T10:29:36;100043.50;;;1.56;100.00
29909;BME280;36247;51.952;6.146;2024-01-15T10:32:05;100040.97;;;1.82;100.00
29909;BME280;36247;51.952;6.146;2024-01-15T10:34:32;100043.16;;;1.96;100.00
29909;BME280;36247;51.952;6.146;2024-01-15T10:36:59;100048.53;;;1.99;100.00
29909;BME280;36247;51.952;6.146;2024-01-15T10:39:28;100042.94;;;1.89;100.00
29909;BME280;36247;51.952;6.146;2024-01-15T10:41:56;100037.56;;;1.61;100.00
29909;BME280;36247;51.952;6.146;2024-01-15T10:44:22;100034.72;;;1.79;100.00
29909;BME280;36247;51.952;6.146;2024-01-15T10:46:48;100034.69;;;1.77;100.00
29909;BME280;36247;51.952;6.146;2024-01-15T10:49:15;100035.38;;;1.73;100.00
29909;BME280;36247;51.952;6.146;2024-01-15T10:51:42;100033.00;;;1.79;100.00
29909;BME280;36247;51.952;6.146;2024-01-15T10:54:09;100041.28;;;1.91;100.00
29909;BME280;36247;51.952;6.146;2024-01-15T10:56:37;100037.13;;;1.72;100.00
29909;BME280;36247;51.952;6.146;2024-01-15T10:59:05;100032.44;;;1.88;100.00
29909;BME280;36247;51.952;6.146;2024-01-15T11:01:33;100046.78;;;1.75;100.00
29909;BME280;36247;51.952;6.146;2024-01-15T11:04:00;100038.94;;;1.99;100.00
29909;BME280;36247;51.952;6.146;2024-01-15T11:06:27;100031.59;;;2.13;100.00
29909;BME280;36247;51.952;6.146;2024-01-15T11:08:54;100026.78;;;2.51;100.00
29909;BME280;36247;51.952;6.146;2024-01-15T11:11:21;100035.72;;;2.85;100.00
29909;BME280;36247;51.952;6.146;2024-01-15T11:13:48;100030.59;;;2.88;100.00
29909;BME280;36247;51.952;6.146;2024-01-15T11:16:16;100045.56;;;2.39;100.00
29909;BME280;36247;51.952;6.146;2024-01-15T11:19:00;100042.69;;;2.32;100.00
29909;BME280;36247;51.952;6.146;2024-01-15T11:21:32;100044.28;;;2.02;100.00
29909;BME280;36247;51.952;6.146;2024-01-15T11:23:59;100045.84;;;1.97;100.00
29909;BME280;36247;51.952;6.146;2024-01-15T11:26:29;100044.13;;;1.98;100.00
29909;BME280;36247;51.952;6.146;2024-01-15T11:28:55;100042.84;;;1.86;100.00
29909;BME280;36247;51.952;6.146;2024-01-15T11:42:59;100052.50;;;2.13;100.00
29909;BME280;36247;51.952;6.146;2024-01-15T11:45:26;100039.69;;;2.21;100.00
29909;BME280;36247;51.952;6.146;2024-01-15T11:48:15;100041.59;;;2.78;100.00
29909;BME280;36247;51.952;6.146;2024-01-15T11:50:48;100043.31;;;2.24;100.00
29909;BME280;36247;51.952;6.146;2024-01-15T11:53:26;100033.59;;;3.60;100.00
29909;BME280;36247;51.952;6.146;2024-01-15T11:55:58;100048.06;;;2.89;100.00
29909;BME280;36247;51.952;6.146;2024-01-15T11:58:27;100040.78;;;2.80;100.00
29909;BME280;36247;51.952;6.146;2024-01-15T12:00:55;100050.72;;;3.18;100.00
29909;BME280;36247;51.952;6.146;2024-01-15T12:03:27;100041.69;;;3.08;100.00
29909;BME280;36247;51.952;6.146;2024-01-15T12:05:57;100030.47;;;3.12;100.00
29909;BME280;36247;51.952;6.146;2024-01-15T12:08:43;100047.19;;;2.61;100.00
29909;BME280;36247;51.952;6.146;2024-01-15T12:11:13;100039.28;;;2.87;100.00
29909;BME280;36247;51.952;6.146;2024-01-15T12:13:42;100044.84;;;2.71;100.00
29909;BME280;36247;51.952;6.146;2024-01-15T12:16:09;100030.56;;;2.61;100.00
29909;BME280;36247;51.952;6.146;2024-01-15T12:18:36;100047.56;;;2.46;100.00
29909;BME280;36247;51.952;6.146;2024-01-15T12:21:04;100041.66;;;2.79;100.00
29909;BME280;36247;51.952;6.146;2024-01-15T12:23:30;100041.44;;;3.88;100.00
29909;BME280;36247;51.952;6.146;2024-01-15T12:26:02;100044.75;;;4.15;100.00
29909;BME280;36247;51.952;6.146;2024-01-15T12:28:29;100038.66;;;3.23;100.00
29909;BME280;36247;51.952;6.146;2024-01-15T12:30:55;100043.88;;;3.23;100.00
29909;BME280;36247;51.952;6.146;2024-01-15T12:33:21;100052.50;;;3.48;100.00
29909;BME280;36247;51.952;6.146;2024-01-15T12:35:48;100074.91;;;3.11;100.00
29909;BME280;36247;51.952;6.146;2024-01-15T12:38:13;100071.69;;;2.92;100.00
29909;BME280;36247;51.952;6.146;2024-01-15T12:40:39;100070.97;;;2.96;100.00
29909;BME280;36247;51.952;6.146;2024-01-15T12:43:06;100089.63;;;2.80;100.00
29909;BME280;36247;51.952;6.146;2024-01-15T12:45:32;100088.09;;;2.61;100.00
29909;BME280;36247;51.952;6.146;2024-01-15T12:47:58;100109.53;;;2.51;100.00
29909;BME280;36247;51.952;6.146;2024-01-15T12:50:26;100113.59;;;2.17;100.00
29909;BME280;36247;51.952;6.146;2024-01-15T12:52:52;100128.88;;;1.59;100.00
29909;BME280;36247;51.952;6.146;2024-01-15T12:55:18;100143.31;;;1.28;100.00
29909;BME280;36247;51.952;6.146;2024-01-15T12:57:44;100119.84;;;1.28;100.00
29909;BME280;36247;51.952;6.146;2024-01-15T13:00:11;100107.59;;;1.26;100.00
29909;BME280;36247;51.952;6.146;2024-01-15T13:02:38;100099.94;;;1.53;100.00